sensor_id;sensor_type;location;lat;lon;timestamp;pressure;altitude;pressure_sealevel;temperature;humidity
26443;BME280;5563;52.296;6.806;2023-04-06T00:01:46;101761.97;;;1.33;61.07
26443;BME280;5563;52.296;6.806;2023-04-06T00:04:22;101761.09;;;1.32;60.99
26443;BME280;5563;52.296;6.806;2023-04-06T00:06:55;101762.03;;;1.30;61.21
26443;BME280;5563;52.296;6.806;2023-04-06T00:09:28;101762.06;;;1.28;60.95
26443;BME280;5563;52.296;6.806;2023-04-06T00:12:01;101756.88;;;1.27;61.02
26443;BME280;5563;52.296;6.806;2023-04-06T00:14:42;101758.72;;;1.23;60.98
26443;BME280;5563;52.296;6.806;2023-04-06T00:17:31;101755.41;;;1.17;61.34
26443;BME280;5563;52.296;6.806;2023-04-06T00:20:17;101753.72;;;1.14;61.61
26443;BME280;5563;52.296;6.806;2023-04-06T00:23:14;101748.53;;;1.13;61.49
26443;BME280;5563;52.296;6.806;2023-04-06T00:25:48;101739.81;;;1.10;61.83
26443;BME280;5563;52.296;6.806;2023-04-06T00:28:29;101739.19;;;1.02;62.22
26443;BME280;5563;52.296;6.806;2023-04-06T00:31:17;101725.28;;;0.99;62.09
26443;BME280;5563;52.296;6.806;2023-04-06T00:33:44;101740.91;;;1.03;62.13
26443;BME280;5563;52.296;6.806;2023-04-06T00:36:33;101730.34;;;1.05;61.64
26443;BME280;5563;52.296;6.806;2023-04-06T00:39:16;101718.25;;;0.99;62.46
26443;BME280;5563;52.296;6.806;2023-04-06T00:42:04;101721.63;;;1.04;62.98
26443;BME280;5563;52.296;6.806;2023-04-06T00:44:41;101726.09;;;1.01;63.31
26443;BME280;5563;52.296;6.806;2023-04-06T00:47:14;101721.88;;;0.95;63.29
26443;BME280;5563;52.296;6.806;2023-04-06T00:49:43;101725.53;;;0.90;63.84
26443;BME280;5563;52.296;6.806;2023-04-06T00:55:45;101721.44;;;0.78;62.83
26443;BME280;5563;52.296;6.806;2023-04-06T00:58:20;101711.00;;;0.77;63.59
26443;BME280;5563;52.296;6.806;2023-04-06T01:00:54;101712.75;;;0.76;64.68
26443;BME280;5563;52.296;6.806;2023-04-06T01:03:28;101711.19;;;0.69;64.78
26443;BME280;5563;52.296;6.806;2023-04-06T01:06:01;101708.72;;;0.65;64.93
26443;BME280;5563;52.296;6.806;2023-04-06T01:08:46;101707.94;;;0.61;65.35
26443;BME280;5563;52.296;6.806;2023-04-06T01:11:13;101699.28;;;0.58;65.53
26443;BME280;5563;52.296;6.806;2023-04-06T01:13:46;101699.38;;;0.53;65.21
26443;BME280;5563;52.296;6.806;2023-04-06T01:16:19;101693.34;;;0.50;66.23
26443;BME280;5563;52.296;6.806;2023-04-06T01:18:53;101683.91;;;0.44;65.89
26443;BME280;5563;52.296;6.806;2023-04-06T01:21:38;101688.38;;;0.39;65.48
26443;BME280;5563;52.296;6.806;2023-04-06T01:24:44;101680.59;;;0.36;66.01
26443;BME280;5563;52.296;6.806;2023-04-06T01:27:13;101682.41;;;0.34;65.84
26443;BME280;5563;52.296;6.806;2023-04-06T01:29:46;101685.03;;;0.34;66.71
26443;BME280;5563;52.296;6.806;2023-04-06T01:32:21;101676.41;;;0.29;66.60
26443;BME280;5563;52.296;6.806;2023-04-06T01:35:05;101675.56;;;0.29;66.68
26443;BME280;5563;52.296;6.806;2023-04-06T01:37:32;101674.81;;;0.24;67.07
26443;BME280;5563;52.296;6.806;2023-04-06T01:40:28;101670.47;;;0.23;66.63
26443;BME280;5563;52.296;6.806;2023-04-06T01:43:11;101681.00;;;0.21;67.20
26443;BME280;5563;52.296;6.806;2023-04-06T01:45:44;101668.03;;;0.15;67.37
26443;BME280;5563;52.296;6.806;2023-04-06T01:48:12;101668.13;;;0.12;67.65
26443;BME280;5563;52.296;6.806;2023-04-06T01:50:46;101669.13;;;0.07;67.67
26443;BME280;5563;52.296;6.806;2023-04-06T01:53:14;101666.59;;;0.04;67.79
26443;BME280;5563;52.296;6.806;2023-04-06T01:55:48;101668.44;;;-0.02;67.40
26443;BME280;5563;52.296;6.806;2023-04-06T01:58:28;101668.63;;;-0.08;67.81
26443;BME280;5563;52.296;6.806;2023-04-06T02:01:08;101668.66;;;-0.11;67.85
26443;BME280;5563;52.296;6.806;2023-04-06T02:03:47;101670.50;;;-0.13;67.65
26443;BME280;5563;52.296;6.806;2023-04-06T02:06:23;101669.66;;;-0.15;67.98
26443;BME280;5563;52.296;6.806;2023-04-06T02:09:01;101669.75;;;-0.19;68.22
26443;BME280;5563;52.296;6.806;2023-04-06T02:11:40;101665.56;;;-0.26;68.05
26443;BME280;5563;52.296;6.806;2023-04-06T02:14:23;101665.72;;;-0.32;68.16
26443;BME280;5563;52.296;6.806;2023-04-06T02:17:03;101661.28;;;-0.30;67.84
26443;BME280;5563;52.296;6.806;2023-04-06T02:19:30;101650.75;;;-0.27;67.78
26443;BME280;5563;52.296;6.806;2023-04-06T02:22:12;101649.78;;;-0.25;67.84
26443;BME280;5563;52.296;6.806;2023-04-06T02:24:51;101642.06;;;-0.29;67.96
26443;BME280;5563;52.296;6.806;2023-04-06T02:27:23;101650.00;;;-0.32;68.03
26443;BME280;5563;52.296;6.806;2023-04-06T02:30:07;101645.69;;;-0.35;67.94
26443;BME280;5563;52.296;6.806;2023-04-06T02:32:52;101648.25;;;-0.33;68.40
26443;BME280;5563;52.296;6.806;2023-04-06T02:35:28;101637.91;;;-0.38;68.45
26443;BME280;5563;52.296;6.806;2023-04-06T02:38:05;101640.44;;;-0.35;67.71
26443;BME280;5563;52.296;6.806;2023-04-06T02:40:38;101636.13;;;-0.37;67.40
26443;BME280;5563;52.296;6.806;2023-04-06T02:43:04;101642.22;;;-0.37;67.41
26443;BME280;5563;52.296;6.806;2023-04-06T02:45:38;101643.97;;;-0.36;67.72
26443;BME280;5563;52.296;6.806;2023-04-06T02:48:05;101642.16;;;-0.34;68.13
26443;BME280;5563;52.296;6.806;2023-04-06T02:50:38;101641.31;;;-0.34;68.44
26443;BME280;5563;52.296;6.806;2023-04-06T02:53:04;101636.19;;;-0.40;68.07
26443;BME280;5563;52.296;6.806;2023-04-06T02:55:41;101634.50;;;-0.41;68.29
26443;BME280;5563;52.296;6.806;2023-04-06T02:58:08;101639.78;;;-0.44;68.22
26443;BME280;5563;52.296;6.806;2023-04-06T03:00:41;101631.22;;;-0.51;68.18
26443;BME280;5563;52.296;6.806;2023-04-06T03:03:16;101638.16;;;-0.48;67.79
26443;BME280;5563;52.296;6.806;2023-04-06T03:05:43;101634.63;;;-0.47;68.35
26443;BME280;5563;52.296;6.806;2023-04-06T03:08:19;101635.56;;;-0.50;68.56
26443;BME280;5563;52.296;6.806;2023-04-06T03:10:56;101626.06;;;-0.54;68.45
26443;BME280;5563;52.296;6.806;2023-04-06T03:13:33;101627.06;;;-0.59;68.44
26443;BME280;5563;52.296;6.806;2023-04-06T03:16:06;101630.59;;;-0.62;68.47
26443;BME280;5563;52.296;6.806;2023-04-06T03:18:40;101623.69;;;-0.64;68.99
26443;BME280;5563;52.296;6.806;2023-04-06T03:21:07;101626.34;;;-0.66;69.16
26443;BME280;5563;52.296;6.806;2023-04-06T03:23:40;101618.56;;;-0.70;69.17
26443;BME280;5563;52.296;6.806;2023-04-06T03:26:08;101622.09;;;-0.71;69.37
26443;BME280;5563;52.296;6.806;2023-04-06T03:28:42;101617.00;;;-0.77;69.31
26443;BME280;5563;52.296;6.806;2023-04-06T03:31:08;101621.38;;;-0.79;69.06
26443;BME280;5563;52.296;6.806;2023-04-06T03:33:48;101615.41;;;-0.84;68.92
26443;BME280;5563;52.296;6.806;2023-04-06T03:36:15;101622.38;;;-0.85;68.26
26443;BME280;5563;52.296;6.806;2023-04-06T03:39:01;101627.53;;;-0.80;68.56
26443;BME280;5563;52.296;6.806;2023-04-06T03:41:28;101620.56;;;-0.80;68.94
26443;BME280;5563;52.296;6.806;2023-04-06T03:44:02;101624.13;;;-0.84;68.95
26443;BME280;5563;52.296;6.806;2023-04-06T03:46:35;101621.44;;;-0.81;68.92
26443;BME280;5563;52.296;6.806;2023-04-06T03:49:08;101621.53;;;-0.85;69.56
26443;BME280;5563;52.296;6.806;2023-04-06T03:51:41;101617.25;;;-0.89;69.80
26443;BME280;5563;52.296;6.806;2023-04-06T03:54:07;101613.88;;;-0.94;69.98
26443;BME280;5563;52.296;6.806;2023-04-06T03:56:34;101602.66;;;-1.01;70.16
26443;BME280;5563;52.296;6.806;2023-04-06T03:59:09;101619.22;;;-0.99;70.26
26443;BME280;5563;52.296;6.806;2023-04-06T04:01:43;101613.19;;;-1.02;70.31
26443;BME280;5563;52.296;6.806;2023-04-06T04:04:21;101610.63;;;-1.05;69.64
26443;BME280;5563;52.296;6.806;2023-04-06T04:06:55;101606.22;;;-1.03;69.94
26443;BME280;5563;52.296;6.806;2023-04-06T04:09:21;101609.69;;;-1.01;70.44
26443;BME280;5563;52.296;6.806;2023-04-06T04:11:55;101610.63;;;-1.05;69.98
26443;BME280;5563;52.296;6.806;2023-04-06T04:14:22;101605.50;;;-1.10;70.28
26443;BME280;5563;52.296;6.806;2023-04-06T04:17:01;101613.38;;;-1.12;70.32
26443;BME280;5563;52.296;6.806;2023-04-06T04:19:29;101602.09;;;-1.14;70.40
26443;BME280;5563;52.296;6.806;2023-04-06T04:22:03;101615.19;;;-1.14;70.61
26443;BME280;5563;52.296;6.806;2023-04-06T04:24:31;101610.00;;;-1.17;70.48
26443;BME280;5563;52.296;6.806;2023-04-06T04:27:22;101613.50;;;-1.18;69.26
26443;BME280;5563;52.296;6.806;2023-04-06T04:30:17;101611.72;;;-1.16;68.68
26443;BME280;5563;52.296;6.806;2023-04-06T04:32:51;101608.22;;;-1.15;68.96
26443;BME280;5563;52.296;6.806;2023-04-06T04:35:18;101614.31;;;-1.14;69.35
26443;BME280;5563;52.296;6.806;2023-04-06T04:37:51;101613.41;;;-1.13;69.08
26443;BME280;5563;52.296;6.806;2023-04-06T04:40:18;101609.94;;;-1.14;68.89
26443;BME280;5563;52.296;6.806;2023-04-06T04:42:44;101614.28;;;-1.13;69.05
26443;BME280;5563;52.296;6.806;2023-04-06T04:45:18;101614.34;;;-1.16;68.43
26443;BME280;5563;52.296;6.806;2023-04-06T04:47:44;101604.56;;;-1.08;68.33
26443;BME280;5563;52.296;6.806;2023-04-06T04:50:18;101609.59;;;-0.98;68.67
26443;BME280;5563;52.296;6.806;2023-04-06T04:52:52;101603.47;;;-0.96;68.50
26443;BME280;5563;52.296;6.806;2023-04-06T04:55:26;101611.22;;;-0.93;68.21
26443;BME280;5563;52.296;6.806;2023-04-06T04:58:04;101604.13;;;-0.88;69.22
26443;BME280;5563;52.296;6.806;2023-04-06T05:00:38;101598.00;;;-0.87;69.13
26443;BME280;5563;52.296;6.806;2023-04-06T05:03:05;101604.06;;;-0.85;69.24
26443;BME280;5563;52.296;6.806;2023-04-06T05:05:39;101606.63;;;-0.82;69.25
26443;BME280;5563;52.296;6.806;2023-04-06T05:08:06;101589.31;;;-0.87;68.96
26443;BME280;5563;52.296;6.806;2023-04-06T05:10:39;101596.09;;;-0.79;69.51
26443;BME280;5563;52.296;6.806;2023-04-06T05:13:13;101592.75;;;-0.85;69.47
26443;BME280;5563;52.296;6.806;2023-04-06T05:15:47;101602.31;;;-0.84;69.51
26443;BME280;5563;52.296;6.806;2023-04-06T05:18:33;101594.34;;;-0.78;69.73
26443;BME280;5563;52.296;6.806;2023-04-06T05:21:11;101594.22;;;-0.74;69.41
26443;BME280;5563;52.296;6.806;2023-04-06T05:23:49;101602.91;;;-0.72;68.32
26443;BME280;5563;52.296;6.806;2023-04-06T05:26:24;101603.66;;;-0.67;68.12
26443;BME280;5563;52.296;6.806;2023-04-06T05:28:58;101601.75;;;-0.59;68.04
26443;BME280;5563;52.296;6.806;2023-04-06T05:31:31;101599.78;;;-0.51;67.89
26443;BME280;5563;52.296;6.806;2023-04-06T05:34:06;101597.91;;;-0.46;67.46
26443;BME280;5563;52.296;6.806;2023-04-06T05:36:35;101588.34;;;-0.47;67.63
26443;BME280;5563;52.296;6.806;2023-04-06T05:39:24;101587.31;;;-0.40;67.31
26443;BME280;5563;52.296;6.806;2023-04-06T05:41:58;101584.72;;;-0.41;67.54
26443;BME280;5563;52.296;6.806;2023-04-06T05:44:31;101597.56;;;-0.31;67.29
26443;BME280;5563;52.296;6.806;2023-04-06T05:47:04;101587.81;;;-0.26;66.85
26443;BME280;5563;52.296;6.806;2023-04-06T05:49:38;101570.31;;;-0.24;66.95
26443;BME280;5563;52.296;6.806;2023-04-06T05:52:05;101589.94;;;-0.06;67.12
26443;BME280;5563;52.296;6.806;2023-04-06T05:54:39;101591.56;;;-0.01;66.96
26443;BME280;5563;52.296;6.806;2023-04-06T05:57:12;101582.81;;;-0.01;66.78
26443;BME280;5563;52.296;6.806;2023-04-06T05:59:45;101584.38;;;0.06;67.01
26443;BME280;5563;52.296;6.806;2023-04-06T06:02:12;101589.34;;;0.17;66.75
26443;BME280;5563;52.296;6.806;2023-04-06T06:04:45;101579.69;;;0.19;66.44
26443;BME280;5563;52.296;6.806;2023-04-06T06:07:13;101579.47;;;0.26;66.31
26443;BME280;5563;52.296;6.806;2023-04-06T06:09:47;101590.41;;;0.42;66.03
26443;BME280;5563;52.296;6.806;2023-04-06T06:12:14;101576.22;;;0.49;65.44
26443;BME280;5563;52.296;6.806;2023-04-06T06:14:47;101567.28;;;0.56;65.25
26443;BME280;5563;52.296;6.806;2023-04-06T06:17:20;101565.88;;;0.73;65.21
26443;BME280;5563;52.296;6.806;2023-04-06T06:19:53;101581.88;;;0.95;65.47
26443;BME280;5563;52.296;6.806;2023-04-06T06:22:27;101576.34;;;1.04;65.81
26443;BME280;5563;52.296;6.806;2023-04-06T06:25:00;101583.72;;;1.21;65.44
26443;BME280;5563;52.296;6.806;2023-04-06T06:27:27;101567.69;;;1.28;65.25
26443;BME280;5563;52.296;6.806;2023-04-06T06:30:00;101578.50;;;1.47;64.58
26443;BME280;5563;52.296;6.806;2023-04-06T06:32:34;101584.22;;;1.59;64.22
26443;BME280;5563;52.296;6.806;2023-04-06T06:35:01;101575.41;;;1.60;63.93
26443;BME280;5563;52.296;6.806;2023-04-06T06:37:34;101587.84;;;1.81;63.64
26443;BME280;5563;52.296;6.806;2023-04-06T06:40:01;101585.78;;;1.91;63.30
26443;BME280;5563;52.296;6.806;2023-04-06T06:42:34;101575.72;;;2.03;63.39
26443;BME280;5563;52.296;6.806;2023-04-06T06:45:01;101587.31;;;2.22;63.14
26443;BME280;5563;52.296;6.806;2023-04-06T06:47:35;101588.63;;;2.36;62.97
26443;BME280;5563;52.296;6.806;2023-04-06T06:50:02;101582.91;;;2.48;62.86
26443;BME280;5563;52.296;6.806;2023-04-06T06:52:30;101583.28;;;2.62;62.81
26443;BME280;5563;52.296;6.806;2023-04-06T06:55:03;101570.66;;;2.71;61.81
26443;BME280;5563;52.296;6.806;2023-04-06T06:57:37;101579.63;;;2.89;62.36
26443;BME280;5563;52.296;6.806;2023-04-06T07:00:06;101569.66;;;2.97;62.21
26443;BME280;5563;52.296;6.806;2023-04-06T07:02:40;101565.88;;;3.04;61.53
26443;BME280;5563;52.296;6.806;2023-04-06T07:05:15;101573.06;;;3.22;61.94
26443;BME280;5563;52.296;6.806;2023-04-06T07:07:49;101576.97;;;3.33;61.45
26443;BME280;5563;52.296;6.806;2023-04-06T07:10:24;101567.88;;;3.42;61.38
26443;BME280;5563;52.296;6.806;2023-04-06T07:12:51;101567.19;;;3.59;60.88
26443;BME280;5563;52.296;6.806;2023-04-06T07:15:31;101566.38;;;3.78;60.57
26443;BME280;5563;52.296;6.806;2023-04-06T07:18:12;101569.22;;;3.94;60.38
26443;BME280;5563;52.296;6.806;2023-04-06T07:20:45;101554.81;;;4.02;59.84
26443;BME280;5563;52.296;6.806;2023-04-06T07:23:12;101561.25;;;4.15;59.84
26443;BME280;5563;52.296;6.806;2023-04-06T07:25:46;101553.09;;;4.21;59.06
26443;BME280;5563;52.296;6.806;2023-04-06T07:28:20;101549.91;;;4.33;59.45
26443;BME280;5563;52.296;6.806;2023-04-06T07:30:54;101550.16;;;4.48;59.50
26443;BME280;5563;52.296;6.806;2023-04-06T07:33:21;101554.84;;;4.61;58.58
26443;BME280;5563;52.296;6.806;2023-04-06T07:35:54;101552.19;;;4.80;58.42
26443;BME280;5563;52.296;6.806;2023-04-06T07:38:21;101547.44;;;4.88;57.88
26443;BME280;5563;52.296;6.806;2023-04-06T07:40:48;101531.44;;;4.91;58.11
26443;BME280;5563;52.296;6.806;2023-04-06T07:43:21;101538.63;;;5.06;57.94
26443;BME280;5563;52.296;6.806;2023-04-06T07:45:48;101553.34;;;5.30;57.09
26443;BME280;5563;52.296;6.806;2023-04-06T07:48:21;101555.13;;;5.48;57.05
26443;BME280;5563;52.296;6.806;2023-04-06T07:50:48;101554.34;;;5.63;56.27
26443;BME280;5563;52.296;6.806;2023-04-06T07:53:22;101550.25;;;5.75;56.58
26443;BME280;5563;52.296;6.806;2023-04-06T07:55:50;101558.31;;;5.90;55.69
26443;BME280;5563;52.296;6.806;2023-04-06T07:58:24;101555.50;;;6.10;54.74
26443;BME280;5563;52.296;6.806;2023-04-06T08:00:51;101552.59;;;6.32;52.31
26443;BME280;5563;52.296;6.806;2023-04-06T08:03:25;101554.47;;;6.47;51.79
26443;BME280;5563;52.296;6.806;2023-04-06T08:05:59;101542.25;;;6.60;51.39
26443;BME280;5563;52.296;6.806;2023-04-06T08:08:33;101552.75;;;6.79;51.45
26443;BME280;5563;52.296;6.806;2023-04-06T08:11:07;101550.38;;;6.90;50.72
26443;BME280;5563;52.296;6.806;2023-04-06T08:13:35;101550.97;;;6.95;51.75
26443;BME280;5563;52.296;6.806;2023-04-06T08:16:14;101539.53;;;7.10;51.12
26443;BME280;5563;52.296;6.806;2023-04-06T08:18:42;101543.91;;;7.26;51.56
26443;BME280;5563;52.296;6.806;2023-04-06T08:21:15;101543.78;;;7.43;51.69
26443;BME280;5563;52.296;6.806;2023-04-06T08:23:42;101545.84;;;7.54;51.38
26443;BME280;5563;52.296;6.806;2023-04-06T08:26:16;101539.06;;;7.64;50.84
26443;BME280;5563;52.296;6.806;2023-04-06T08:28:43;101539.47;;;7.72;50.14
26443;BME280;5563;52.296;6.806;2023-04-06T08:31:17;101546.03;;;7.81;49.92
26443;BME280;5563;52.296;6.806;2023-04-06T08:33:44;101534.19;;;8.02;48.79
26443;BME280;5563;52.296;6.806;2023-04-06T08:36:17;101528.25;;;8.12;49.37
26443;BME280;5563;52.296;6.806;2023-04-06T08:38:49;101527.75;;;8.35;48.58
26443;BME280;5563;52.296;6.806;2023-04-06T08:41:17;101529.56;;;8.49;48.78
26443;BME280;5563;52.296;6.806;2023-04-06T08:43:56;101529.84;;;8.73;47.83
26443;BME280;5563;52.296;6.806;2023-04-06T08:46:31;101524.97;;;8.93;46.44
26443;BME280;5563;52.296;6.806;2023-04-06T08:48:59;101533.03;;;9.06;46.77
26443;BME280;5563;52.296;6.806;2023-04-06T08:51:34;101528.56;;;9.20;46.16
26443;BME280;5563;52.296;6.806;2023-04-06T08:54:01;101528.00;;;9.42;46.90
26443;BME280;5563;52.296;6.806;2023-04-06T08:56:38;101527.34;;;9.65;45.07
26443;BME280;5563;52.296;6.806;2023-04-06T08:59:06;101524.72;;;9.77;45.58
26443;BME280;5563;52.296;6.806;2023-04-06T09:01:46;101516.22;;;9.85;44.78
26443;BME280;5563;52.296;6.806;2023-04-06T09:04:20;101520.63;;;9.86;44.40
26443;BME280;5563;52.296;6.806;2023-04-06T09:06:47;101517.09;;;9.86;44.23
26443;BME280;5563;52.296;6.806;2023-04-06T09:09:21;101525.88;;;10.00;43.76
26443;BME280;5563;52.296;6.806;2023-04-06T09:11:51;101519.72;;;10.12;44.32
26443;BME280;5563;52.296;6.806;2023-04-06T09:14:37;101518.03;;;10.24;44.83
26443;BME280;5563;52.296;6.806;2023-04-06T09:17:34;101508.34;;;10.35;44.68
26443;BME280;5563;52.296;6.806;2023-04-06T09:20:10;101514.53;;;10.36;43.72
26443;BME280;5563;52.296;6.806;2023-04-06T09:22:38;101516.22;;;10.37;44.20
26443;BME280;5563;52.296;6.806;2023-04-06T09:25:19;101509.63;;;10.42;43.55
26443;BME280;5563;52.296;6.806;2023-04-06T09:27:47;101507.72;;;10.44;43.61
26443;BME280;5563;52.296;6.806;2023-04-06T09:30:22;101509.81;;;10.52;42.57
26443;BME280;5563;52.296;6.806;2023-04-06T09:32:58;101502.91;;;10.49;41.16
26443;BME280;5563;52.296;6.806;2023-04-06T09:35:32;101500.47;;;10.46;41.35
26443;BME280;5563;52.296;6.806;2023-04-06T09:38:10;101493.00;;;10.51;42.78
26443;BME280;5563;52.296;6.806;2023-04-06T09:40:49;101502.44;;;10.68;40.93
26443;BME280;5563;52.296;6.806;2023-04-06T09:43:27;101502.53;;;10.92;42.10
26443;BME280;5563;52.296;6.806;2023-04-06T09:46:00;101494.06;;;11.10;40.81
26443;BME280;5563;52.296;6.806;2023-04-06T09:48:36;101487.59;;;11.25;40.18
26443;BME280;5563;52.296;6.806;2023-04-06T09:51:13;101483.38;;;11.34;39.52
26443;BME280;5563;52.296;6.806;2023-04-06T09:53:44;101487.19;;;11.42;38.78
26443;BME280;5563;52.296;6.806;2023-04-06T09:56:24;101493.19;;;11.46;37.78
26443;BME280;5563;52.296;6.806;2023-04-06T09:59:04;101485.66;;;11.27;37.93
26443;BME280;5563;52.296;6.806;2023-04-06T10:01:35;101481.94;;;11.30;38.52
26443;BME280;5563;52.296;6.806;2023-04-06T10:04:24;101487.88;;;11.57;38.22
26443;BME280;5563;52.296;6.806;2023-04-06T10:07:02;101489.56;;;11.70;37.49
26443;BME280;5563;52.296;6.806;2023-04-06T10:09:29;101484.53;;;11.89;37.17
26443;BME280;5563;52.296;6.806;2023-04-06T10:12:09;101484.78;;;11.98;36.41
26443;BME280;5563;52.296;6.806;2023-04-06T10:14:36;101474.69;;;12.01;36.79
26443;BME280;5563;52.296;6.806;2023-04-06T10:17:14;101474.38;;;12.06;36.47
26443;BME280;5563;52.296;6.806;2023-04-06T10:20:08;101478.38;;;12.22;37.14
26443;BME280;5563;52.296;6.806;2023-04-06T10:22:55;101471.38;;;12.32;35.39
26443;BME280;5563;52.296;6.806;2023-04-06T10:25:31;101471.50;;;12.42;36.42
26443;BME280;5563;52.296;6.806;2023-04-06T10:28:06;101471.75;;;12.61;35.76
26443;BME280;5563;52.296;6.806;2023-04-06T10:30:43;101469.22;;;12.59;34.70
26443;BME280;5563;52.296;6.806;2023-04-06T10:33:19;101473.44;;;12.62;34.82
26443;BME280;5563;52.296;6.806;2023-04-06T10:35:54;101466.16;;;12.75;35.01
26443;BME280;5563;52.296;6.806;2023-04-06T10:38:35;101453.25;;;13.02;34.80
26443;BME280;5563;52.296;6.806;2023-04-06T10:41:10;101462.56;;;13.30;33.69
26443;BME280;5563;52.296;6.806;2023-04-06T10:43:39;101455.19;;;13.43;33.01
26443;BME280;5563;52.296;6.806;2023-04-06T10:46:25;101447.84;;;13.56;32.58
26443;BME280;5563;52.296;6.806;2023-04-06T10:49:09;101452.06;;;13.38;32.87
26443;BME280;5563;52.296;6.806;2023-04-06T10:51:44;101450.19;;;13.18;31.99
26443;BME280;5563;52.296;6.806;2023-04-06T10:54:11;101449.72;;;13.01;31.57
26443;BME280;5563;52.296;6.806;2023-04-06T10:56:46;101448.78;;;12.58;31.97
26443;BME280;5563;52.296;6.806;2023-04-06T10:59:13;101449.84;;;12.56;32.71
26443;BME280;5563;52.296;6.806;2023-04-06T11:01:51;101445.38;;;12.67;32.86
26443;BME280;5563;52.296;6.806;2023-04-06T11:04:26;101448.03;;;12.78;32.58
26443;BME280;5563;52.296;6.806;2023-04-06T11:06:53;101443.16;;;12.94;32.76
26443;BME280;5563;52.296;6.806;2023-04-06T11:09:33;101441.63;;;13.24;32.29
26443;BME280;5563;52.296;6.806;2023-04-06T11:12:01;101437.72;;;13.39;31.95
26443;BME280;5563;52.296;6.806;2023-04-06T11:14:35;101427.16;;;13.26;32.45
26443;BME280;5563;52.296;6.806;2023-04-06T11:17:03;101443.50;;;13.23;33.21
26443;BME280;5563;52.296;6.806;2023-04-06T11:19:36;101427.88;;;13.28;32.18
26443;BME280;5563;52.296;6.806;2023-04-06T11:22:07;101436.19;;;13.57;33.29
26443;BME280;5563;52.296;6.806;2023-04-06T11:24:41;101425.00;;;13.72;32.01
26443;BME280;5563;52.296;6.806;2023-04-06T11:27:14;101427.56;;;13.74;32.26
26443;BME280;5563;52.296;6.806;2023-04-06T11:29:51;101432.72;;;13.86;32.41
26443;BME280;5563;52.296;6.806;2023-04-06T11:32:21;101430.81;;;14.19;32.48
26443;BME280;5563;52.296;6.806;2023-04-06T11:34:57;101427.31;;;14.48;31.25
26443;BME280;5563;52.296;6.806;2023-04-06T11:37:26;101421.22;;;14.76;30.71
26443;BME280;5563;52.296;6.806;2023-04-06T11:40:00;101421.97;;;14.97;30.02
26443;BME280;5563;52.296;6.806;2023-04-06T11:42:29;101433.72;;;15.06;29.90
26443;BME280;5563;52.296;6.806;2023-04-06T11:45:02;101414.78;;;14.98;30.07
26443;BME280;5563;52.296;6.806;2023-04-06T11:47:35;101416.84;;;14.85;30.26
26443;BME280;5563;52.296;6.806;2023-04-06T11:50:13;101407.97;;;14.84;31.13
26443;BME280;5563;52.296;6.806;2023-04-06T11:52:59;101414.06;;;14.86;30.87
26443;BME280;5563;52.296;6.806;2023-04-06T11:55:38;101405.53;;;14.81;30.90
26443;BME280;5563;52.296;6.806;2023-04-06T11:58:06;101414.53;;;14.61;31.24
26443;BME280;5563;52.296;6.806;2023-04-06T12:00:40;101417.09;;;14.33;32.18
26443;BME280;5563;52.296;6.806;2023-04-06T12:03:13;101424.53;;;14.08;31.34
26443;BME280;5563;52.296;6.806;2023-04-06T12:05:46;101411.28;;;13.86;32.62
26443;BME280;5563;52.296;6.806;2023-04-06T12:08:13;101410.03;;;13.70;32.50
26443;BME280;5563;52.296;6.806;2023-04-06T12:10:42;101408.16;;;13.81;33.20
26443;BME280;5563;52.296;6.806;2023-04-06T12:13:17;101413.38;;;13.83;33.38
26443;BME280;5563;52.296;6.806;2023-04-06T12:15:51;101406.56;;;13.79;33.04
26443;BME280;5563;52.296;6.806;2023-04-06T12:18:24;101391.00;;;13.52;33.21
26443;BME280;5563;52.296;6.806;2023-04-06T12:20:52;101413.66;;;13.48;33.15
26443;BME280;5563;52.296;6.806;2023-04-06T12:23:25;101415.66;;;13.46;33.54
26443;BME280;5563;52.296;6.806;2023-04-06T12:25:52;101416.88;;;13.42;33.99
26443;BME280;5563;52.296;6.806;2023-04-06T12:28:25;101410.22;;;13.26;33.96
26443;BME280;5563;52.296;6.806;2023-04-06T12:30:53;101404.09;;;13.14;34.30
26443;BME280;5563;52.296;6.806;2023-04-06T12:33:27;101405.78;;;13.04;35.31
26443;BME280;5563;52.296;6.806;2023-04-06T12:35:54;101410.50;;;13.00;35.18
26443;BME280;5563;52.296;6.806;2023-04-06T12:38:28;101411.00;;;13.06;34.85
26443;BME280;5563;52.296;6.806;2023-04-06T12:40:55;101409.78;;;13.10;34.72
26443;BME280;5563;52.296;6.806;2023-04-06T12:43:28;101414.66;;;13.16;34.36
26443;BME280;5563;52.296;6.806;2023-04-06T12:45:55;101410.25;;;13.15;34.57
26443;BME280;5563;52.296;6.806;2023-04-06T12:48:22;101411.97;;;13.16;34.71
26443;BME280;5563;52.296;6.806;2023-04-06T12:51:06;101390.47;;;13.06;34.60
26443;BME280;5563;52.296;6.806;2023-04-06T12:53:34;101400.06;;;13.09;34.73
26443;BME280;5563;52.296;6.806;2023-04-06T12:56:15;101412.00;;;12.93;35.14
26443;BME280;5563;52.296;6.806;2023-04-06T12:58:44;101417.63;;;12.79;35.53
26443;BME280;5563;52.296;6.806;2023-04-06T13:01:18;101405.59;;;12.74;37.23
26443;BME280;5563;52.296;6.806;2023-04-06T13:03:46;101408.13;;;12.75;37.17
26443;BME280;5563;52.296;6.806;2023-04-06T13:06:20;101411.78;;;12.63;38.38
26443;BME280;5563;52.296;6.806;2023-04-06T13:08:47;101416.91;;;12.44;39.37
26443;BME280;5563;52.296;6.806;2023-04-06T13:11:23;101407.69;;;12.37;40.19
26443;BME280;5563;52.296;6.806;2023-04-06T13:13:54;101401.84;;;12.32;40.29
26443;BME280;5563;52.296;6.806;2023-04-06T13:16:34;101406.00;;;12.36;41.27
26443;BME280;5563;52.296;6.806;2023-04-06T13:19:01;101412.16;;;12.37;41.09
26443;BME280;5563;52.296;6.806;2023-04-06T13:21:39;101410.22;;;12.28;39.48
26443;BME280;5563;52.296;6.806;2023-04-06T13:24:06;101409.84;;;12.10;39.51
26443;BME280;5563;52.296;6.806;2023-04-06T13:26:41;101415.44;;;12.07;39.98
26443;BME280;5563;52.296;6.806;2023-04-06T13:29:15;101419.94;;;12.07;40.83
26443;BME280;5563;52.296;6.806;2023-04-06T13:31:49;101416.53;;;12.05;39.88
26443;BME280;5563;52.296;6.806;2023-04-06T13:34:16;101403.13;;;11.82;40.14
26443;BME280;5563;52.296;6.806;2023-04-06T13:36:50;101414.31;;;11.87;40.07
26443;BME280;5563;52.296;6.806;2023-04-06T13:39:17;101411.84;;;11.73;39.80
26443;BME280;5563;52.296;6.806;2023-04-06T13:41:53;101396.28;;;11.67;40.36
26443;BME280;5563;52.296;6.806;2023-04-06T13:44:29;101408.59;;;11.81;40.18